sensor_id;sensor_type;location;lat;lon;timestamp;P1;durP1;ratioP1;P2;durP2;ratioP2
19798;SDS011;10059;59.850;10.454;2023-05-07T00:00:21;4.53;;;1.73;;
19798;SDS011;10059;59.850;10.454;2023-05-07T00:02:48;5.03;;;2.00;;
19798;SDS011;10059;59.850;10.454;2023-05-07T00:05:15;2.90;;;2.03;;
19798;SDS011;10059;59.850;10.454;2023-05-07T00:07:42;4.57;;;2.50;;
19798;SDS011;10059;59.850;10.454;2023-05-07T00:10:09;4.03;;;2.40;;
19798;SDS011;10059;59.850;10.454;2023-05-07T00:12:37;6.00;;;2.33;;
19798;SDS011;10059;59.850;10.454;2023-05-07T00:15:06;5.37;;;2.60;;
19798;SDS011;10059;59.850;10.454;2023-05-07T00:17:33;5.70;;;2.70;;
19798;SDS011;10059;59.850;10.454;2023-05-07T00:20:00;4.03;;;2.40;;
19798;SDS011;10059;59.850;10.454;2023-05-07T00:22:28;9.63;;;2.70;;
19798;SDS011;10059;59.850;10.454;2023-05-07T00:24:55;7.27;;;3.07;;
19798;SDS011;10059;59.850;10.454;2023-05-07T00:27:22;5.57;;;2.57;;
19798;SDS011;10059;59.850;10.454;2023-05-07T00:29:50;5.67;;;2.87;;
19798;SDS011;10059;59.850;10.454;2023-05-07T00:32:18;7.30;;;2.77;;
19798;SDS011;10059;59.850;10.454;2023-05-07T00:34:45;7.53;;;2.63;;
19798;SDS011;10059;59.850;10.454;2023-05-07T00:37:11;5.53;;;2.60;;
19798;SDS011;10059;59.850;10.454;2023-05-07T00:39:38;8.53;;;2.43;;
19798;SDS011;10059;59.850;10.454;2023-05-07T00:42:05;4.63;;;2.10;;
19798;SDS011;10059;59.850;10.454;2023-05-07T00:44:33;4.80;;;2.10;;
19798;SDS011;10059;59.850;10.454;2023-05-07T00:47:00;3.77;;;2.33;;
19798;SDS011;10059;59.850;10.454;2023-05-07T00:49:34;4.03;;;2.10;;
19798;SDS011;10059;59.850;10.454;2023-05-07T00:52:04;4.93;;;2.23;;
19798;SDS011;10059;59.850;10.454;2023-05-07T00:54:32;5.17;;;2.10;;
19798;SDS011;10059;59.850;10.454;2023-05-07T00:57:00;5.47;;;2.20;;
19798;SDS011;10059;59.850;10.454;2023-05-07T00:59:28;4.03;;;2.27;;
19798;SDS011;10059;59.850;10.454;2023-05-07T01:01:56;6.07;;;2.30;;
19798;SDS011;10059;59.850;10.454;2023-05-07T01:04:23;5.63;;;2.40;;
19798;SDS011;10059;59.850;10.454;2023-05-07T01:06:51;5.17;;;2.53;;
19798;SDS011;10059;59.850;10.454;2023-05-07T01:09:19;4.80;;;2.70;;
19798;SDS011;10059;59.850;10.454;2023-05-07T01:11:47;8.20;;;2.60;;
19798;SDS011;10059;59.850;10.454;2023-05-07T01:14:15;4.93;;;2.80;;
19798;SDS011;10059;59.850;10.454;2023-05-07T01:16:42;3.10;;;2.33;;
19798;SDS011;10059;59.850;10.454;2023-05-07T01:19:09;4.63;;;2.13;;
19798;SDS011;10059;59.850;10.454;2023-05-07T01:21:38;5.27;;;2.80;;
19798;SDS011;10059;59.850;10.454;2023-05-07T01:24:12;4.10;;;2.63;;
19798;SDS011;10059;59.850;10.454;2023-05-07T01:26:40;4.50;;;2.37;;
19798;SDS011;10059;59.850;10.454;2023-05-07T01:29:09;3.20;;;1.90;;
19798;SDS011;10059;59.850;10.454;2023-05-07T01:31:36;3.77;;;2.10;;
19798;SDS011;10059;59.850;10.454;2023-05-07T01:34:04;4.40;;;2.30;;
19798;SDS011;10059;59.850;10.454;2023-05-07T01:36:33;4.37;;;2.07;;
19798;SDS011;10059;59.850;10.454;2023-05-07T01:39:02;5.93;;;2.50;;
19798;SDS011;10059;59.850;10.454;2023-05-07T01:41:31;4.17;;;2.30;;
19798;SDS011;10059;59.850;10.454;2023-05-07T01:43:58;3.33;;;2.30;;
19798;SDS011;10059;59.850;10.454;2023-05-07T01:46:26;4.53;;;2.30;;
19798;SDS011;10059;59.850;10.454;2023-05-07T01:48:53;7.83;;;2.03;;
19798;SDS011;10059;59.850;10.454;2023-05-07T01:51:20;4.70;;;2.00;;
19798;SDS011;10059;59.850;10.454;2023-05-07T01:53:48;4.17;;;1.80;;
19798;SDS011;10059;59.850;10.454;2023-05-07T01:56:16;7.50;;;2.13;;
19798;SDS011;10059;59.850;10.454;2023-05-07T01:58:45;3.87;;;2.17;;
19798;SDS011;10059;59.850;10.454;2023-05-07T02:01:12;4.10;;;1.97;;
19798;SDS011;10059;59.850;10.454;2023-05-07T02:03:39;4.37;;;2.30;;
19798;SDS011;10059;59.850;10.454;2023-05-07T02:06:06;3.20;;;1.90;;
19798;SDS011;10059;59.850;10.454;2023-05-07T02:08:33;5.63;;;2.20;;
19798;SDS011;10059;59.850;10.454;2023-05-07T02:11:00;3.60;;;2.30;;
19798;SDS011;10059;59.850;10.454;2023-05-07T02:13:28;4.50;;;2.10;;
19798;SDS011;10059;59.850;10.454;2023-05-07T02:15:57;5.83;;;2.20;;
19798;SDS011;10059;59.850;10.454;2023-05-07T02:18:24;5.10;;;2.30;;
19798;SDS011;10059;59.850;10.454;2023-05-07T02:20:51;7.20;;;2.10;;
19798;SDS011;10059;59.850;10.454;2023-05-07T02:23:18;4.17;;;2.13;;
19798;SDS011;10059;59.850;10.454;2023-05-07T02:25:45;6.43;;;2.93;;
19798;SDS011;10059;59.850;10.454;2023-05-07T02:28:12;5.90;;;3.33;;
19798;SDS011;10059;59.850;10.454;2023-05-07T02:30:39;6.93;;;3.20;;
19798;SDS011;10059;59.850;10.454;2023-05-07T02:33:07;6.77;;;3.20;;
19798;SDS011;10059;59.850;10.454;2023-05-07T02:35:34;4.13;;;2.90;;
19798;SDS011;10059;59.850;10.454;2023-05-07T02:38:01;5.70;;;2.90;;
19798;SDS011;10059;59.850;10.454;2023-05-07T02:40:28;6.37;;;2.80;;
19798;SDS011;10059;59.850;10.454;2023-05-07T02:42:58;5.03;;;2.47;;
19798;SDS011;10059;59.850;10.454;2023-05-07T02:45:25;3.60;;;2.10;;
19798;SDS011;10059;59.850;10.454;2023-05-07T02:47:52;8.07;;;2.50;;
19798;SDS011;10059;59.850;10.454;2023-05-07T02:50:20;7.07;;;2.73;;
19798;SDS011;10059;59.850;10.454;2023-05-07T02:52:47;3.80;;;2.60;;
19798;SDS011;10059;59.850;10.454;2023-05-07T02:55:14;5.87;;;2.50;;
19798;SDS011;10059;59.850;10.454;2023-05-07T02:57:41;7.27;;;2.80;;
19798;SDS011;10059;59.850;10.454;2023-05-07T03:00:11;5.03;;;2.40;;
19798;SDS011;10059;59.850;10.454;2023-05-07T03:02:39;5.27;;;2.57;;
19798;SDS011;10059;59.850;10.454;2023-05-07T03:05:06;6.17;;;2.67;;
19798;SDS011;10059;59.850;10.454;2023-05-07T03:07:35;3.80;;;2.40;;
19798;SDS011;10059;59.850;10.454;2023-05-07T03:10:02;7.13;;;2.47;;
19798;SDS011;10059;59.850;10.454;2023-05-07T03:12:30;4.20;;;2.70;;
19798;SDS011;10059;59.850;10.454;2023-05-07T03:14:57;5.43;;;3.40;;
19798;SDS011;10059;59.850;10.454;2023-05-07T03:17:24;5.77;;;3.70;;
19798;SDS011;10059;59.850;10.454;2023-05-07T03:19:50;7.03;;;4.17;;
19798;SDS011;10059;59.850;10.454;2023-05-07T03:22:17;5.93;;;3.70;;
19798;SDS011;10059;59.850;10.454;2023-05-07T03:24:46;7.50;;;3.63;;
19798;SDS011;10059;59.850;10.454;2023-05-07T03:27:13;7.10;;;3.90;;
19798;SDS011;10059;59.850;10.454;2023-05-07T03:29:40;8.13;;;5.20;;
19798;SDS011;10059;59.850;10.454;2023-05-07T03:32:07;8.30;;;4.37;;
19798;SDS011;10059;59.850;10.454;2023-05-07T03:34:34;7.50;;;4.30;;
19798;SDS011;10059;59.850;10.454;2023-05-07T03:37:01;9.23;;;4.03;;
19798;SDS011;10059;59.850;10.454;2023-05-07T03:39:28;6.37;;;3.93;;
19798;SDS011;10059;59.850;10.454;2023-05-07T03:41:56;9.93;;;4.93;;
19798;SDS011;10059;59.850;10.454;2023-05-07T03:44:23;8.23;;;4.83;;
19798;SDS011;10059;59.850;10.454;2023-05-07T03:46:50;8.73;;;4.40;;
19798;SDS011;10059;59.850;10.454;2023-05-07T03:49:17;10.13;;;4.17;;
19798;SDS011;10059;59.850;10.454;2023-05-07T03:51:44;9.13;;;4.13;;
19798;SDS011;10059;59.850;10.454;2023-05-07T03:54:11;7.63;;;3.70;;
19798;SDS011;10059;59.850;10.454;2023-05-07T03:56:37;7.87;;;3.57;;
19798;SDS011;10059;59.850;10.454;2023-05-07T03:59:06;7.10;;;2.93;;
19798;SDS011;10059;59.850;10.454;2023-05-07T04:01:33;11.87;;;3.50;;
19798;SDS011;10059;59.850;10.454;2023-05-07T04:04:00;6.60;;;3.17;;
19798;SDS011;10059;59.850;10.454;2023-05-07T04:06:26;7.57;;;3.13;;
19798;SDS011;10059;59.850;10.454;2023-05-07T04:08:53;5.57;;;3.07;;
19798;SDS011;10059;59.850;10.454;2023-05-07T04:11:20;6.57;;;3.20;;
19798;SDS011;10059;59.850;10.454;2023-05-07T04:13:47;6.27;;;2.80;;
19798;SDS011;10059;59.850;10.454;2023-05-07T04:16:15;5.23;;;2.40;;
19798;SDS011;10059;59.850;10.454;2023-05-07T04:18:42;3.63;;;2.23;;
19798;SDS011;10059;59.850;10.454;2023-05-07T04:21:13;4.87;;;2.57;;
19798;SDS011;10059;59.850;10.454;2023-05-07T04:23:40;3.93;;;2.30;;
19798;SDS011;10059;59.850;10.454;2023-05-07T04:26:07;5.40;;;2.47;;
19798;SDS011;10059;59.850;10.454;2023-05-07T04:28:34;5.23;;;2.30;;
19798;SDS011;10059;59.850;10.454;2023-05-07T04:31:01;4.27;;;2.60;;
19798;SDS011;10059;59.850;10.454;2023-05-07T04:33:30;5.50;;;2.70;;
19798;SDS011;10059;59.850;10.454;2023-05-07T04:35:57;6.37;;;3.07;;
19798;SDS011;10059;59.850;10.454;2023-05-07T04:38:27;6.70;;;3.20;;
19798;SDS011;10059;59.850;10.454;2023-05-07T04:40:54;7.27;;;2.80;;
19798;SDS011;10059;59.850;10.454;2023-05-07T04:43:22;6.03;;;2.70;;
19798;SDS011;10059;59.850;10.454;2023-05-07T04:45:49;5.13;;;2.37;;
19798;SDS011;10059;59.850;10.454;2023-05-07T04:48:16;6.23;;;2.90;;
19798;SDS011;10059;59.850;10.454;2023-05-07T04:50:45;6.67;;;2.90;;
19798;SDS011;10059;59.850;10.454;2023-05-07T04:53:14;5.63;;;2.60;;
19798;SDS011;10059;59.850;10.454;2023-05-07T04:55:41;7.13;;;2.40;;
19798;SDS011;10059;59.850;10.454;2023-05-07T04:58:08;3.30;;;2.20;;
19798;SDS011;10059;59.850;10.454;2023-05-07T05:00:35;5.60;;;2.17;;
19798;SDS011;10059;59.850;10.454;2023-05-07T05:03:03;5.27;;;2.30;;
19798;SDS011;10059;59.850;10.454;2023-05-07T05:05:30;4.60;;;2.10;;
19798;SDS011;10059;59.850;10.454;2023-05-07T05:07:58;5.67;;;2.50;;
19798;SDS011;10059;59.850;10.454;2023-05-07T05:10:25;4.13;;;1.90;;
19798;SDS011;10059;59.850;10.454;2023-05-07T05:12:52;4.47;;;2.43;;
19798;SDS011;10059;59.850;10.454;2023-05-07T05:15:19;2.97;;;1.90;;
19798;SDS011;10059;59.850;10.454;2023-05-07T05:17:46;4.90;;;2.10;;
19798;SDS011;10059;59.850;10.454;2023-05-07T05:20:12;3.50;;;2.07;;
19798;SDS011;10059;59.850;10.454;2023-05-07T05:22:40;5.60;;;2.20;;
19798;SDS011;10059;59.850;10.454;2023-05-07T05:25:09;3.30;;;1.97;;
19798;SDS011;10059;59.850;10.454;2023-05-07T05:27:35;4.63;;;2.10;;
19798;SDS011;10059;59.850;10.454;2023-05-07T05:32:30;6.40;;;2.10;;
19798;SDS011;10059;59.850;10.454;2023-05-07T05:34:57;3.93;;;2.17;;
19798;SDS011;10059;59.850;10.454;2023-05-07T05:37:24;5.27;;;2.00;;
19798;SDS011;10059;59.850;10.454;2023-05-07T05:39:52;2.93;;;1.83;;
19798;SDS011;10059;59.850;10.454;2023-05-07T05:42:21;3.07;;;1.90;;
19798;SDS011;10059;59.850;10.454;2023-05-07T05:44:48;5.30;;;2.03;;
19798;SDS011;10059;59.850;10.454;2023-05-07T05:47:14;4.80;;;1.90;;
19798;SDS011;10059;59.850;10.454;2023-05-07T05:49:41;8.20;;;2.10;;
19798;SDS011;10059;59.850;10.454;2023-05-07T05:52:09;2.10;;;1.60;;
19798;SDS011;10059;59.850;10.454;2023-05-07T05:54:36;5.23;;;2.00;;
19798;SDS011;10059;59.850;10.454;2023-05-07T05:57:03;5.23;;;1.77;;
19798;SDS011;10059;59.850;10.454;2023-05-07T05:59:32;4.13;;;2.10;;
19798;SDS011;10059;59.850;10.454;2023-05-07T06:01:59;3.63;;;1.73;;
19798;SDS011;10059;59.850;10.454;2023-05-07T06:04:26;4.13;;;2.00;;
19798;SDS011;10059;59.850;10.454;2023-05-07T06:06:53;4.43;;;2.00;;
19798;SDS011;10059;59.850;10.454;2023-05-07T06:09:20;4.37;;;1.87;;
19798;SDS011;10059;59.850;10.454;2023-05-07T06:11:47;3.87;;;2.00;;
19798;SDS011;10059;59.850;10.454;2023-05-07T06:14:13;3.20;;;1.90;;
19798;SDS011;10059;59.850;10.454;2023-05-07T06:16:42;4.30;;;1.97;;
19798;SDS011;10059;59.850;10.454;2023-05-07T06:19:08;4.10;;;1.87;;
19798;SDS011;10059;59.850;10.454;2023-05-07T06:21:35;4.80;;;1.90;;
19798;SDS011;10059;59.850;10.454;2023-05-07T06:24:02;3.70;;;1.97;;
19798;SDS011;10059;59.850;10.454;2023-05-07T06:26:29;5.43;;;2.10;;
19798;SDS011;10059;59.850;10.454;2023-05-07T06:28:56;3.40;;;1.90;;
19798;SDS011;10059;59.850;10.454;2023-05-07T06:31:23;6.07;;;2.00;;
19798;SDS011;10059;59.850;10.454;2023-05-07T06:33:56;3.53;;;1.87;;
19798;SDS011;10059;59.850;10.454;2023-05-07T06:36:24;3.60;;;1.90;;
19798;SDS011;10059;59.850;10.454;2023-05-07T06:38:51;7.73;;;2.00;;
19798;SDS011;10059;59.850;10.454;2023-05-07T06:41:18;6.80;;;2.17;;
19798;SDS011;10059;59.850;10.454;2023-05-07T06:43:45;6.77;;;2.10;;
19798;SDS011;10059;59.850;10.454;2023-05-07T06:46:12;5.67;;;1.90;;
19798;SDS011;10059;59.850;10.454;2023-05-07T06:48:39;4.30;;;2.20;;
19798;SDS011;10059;59.850;10.454;2023-05-07T06:51:07;4.27;;;1.90;;
19798;SDS011;10059;59.850;10.454;2023-05-07T06:53:34;4.80;;;2.20;;
19798;SDS011;10059;59.850;10.454;2023-05-07T06:56:01;4.67;;;1.80;;
19798;SDS011;10059;59.850;10.454;2023-05-07T06:58:28;4.63;;;2.00;;
19798;SDS011;10059;59.850;10.454;2023-05-07T07:00:55;5.80;;;2.17;;
19798;SDS011;10059;59.850;10.454;2023-05-07T07:03:22;4.17;;;2.27;;
19798;SDS011;10059;59.850;10.454;2023-05-07T07:05:51;2.83;;;1.80;;
19798;SDS011;10059;59.850;10.454;2023-05-07T07:08:19;3.53;;;2.00;;
19798;SDS011;10059;59.850;10.454;2023-05-07T07:10:47;4.17;;;2.10;;
19798;SDS011;10059;59.850;10.454;2023-05-07T07:13:14;4.53;;;2.03;;
19798;SDS011;10059;59.850;10.454;2023-05-07T07:15:41;3.67;;;2.20;;
19798;SDS011;10059;59.850;10.454;2023-05-07T07:18:08;4.47;;;1.90;;
19798;SDS011;10059;59.850;10.454;2023-05-07T07:20:35;4.07;;;2.10;;
19798;SDS011;10059;59.850;10.454;2023-05-07T07:23:02;4.60;;;2.03;;
19798;SDS011;10059;59.850;10.454;2023-05-07T07:25:30;2.40;;;1.90;;
19798;SDS011;10059;59.850;10.454;2023-05-07T07:27:57;3.47;;;2.03;;
19798;SDS011;10059;59.850;10.454;2023-05-07T07:30:25;2.97;;;1.73;;
19798;SDS011;10059;59.850;10.454;2023-05-07T07:32:52;2.40;;;1.90;;
19798;SDS011;10059;59.850;10.454;2023-05-07T07:35:19;5.67;;;2.10;;
19798;SDS011;10059;59.850;10.454;2023-05-07T07:37:46;5.50;;;2.00;;
19798;SDS011;10059;59.850;10.454;2023-05-07T07:40:14;5.03;;;1.93;;
19798;SDS011;10059;59.850;10.454;2023-05-07T07:42:43;6.60;;;2.30;;
19798;SDS011;10059;59.850;10.454;2023-05-07T07:45:10;3.90;;;2.23;;
19798;SDS011;10059;59.850;10.454;2023-05-07T07:47:37;4.73;;;2.00;;
19798;SDS011;10059;59.850;10.454;2023-05-07T07:50:04;9.03;;;2.27;;
19798;SDS011;10059;59.850;10.454;2023-05-07T07:52:32;4.27;;;1.97;;
19798;SDS011;10059;59.850;10.454;2023-05-07T07:54:59;6.03;;;2.30;;
19798;SDS011;10059;59.850;10.454;2023-05-07T07:57:26;4.10;;;2.00;;
19798;SDS011;10059;59.850;10.454;2023-05-07T07:59:54;2.97;;;1.80;;
19798;SDS011;10059;59.850;10.454;2023-05-07T08:02:21;5.33;;;2.20;;
19798;SDS011;10059;59.850;10.454;2023-05-07T08:04:48;6.40;;;2.10;;
19798;SDS011;10059;59.850;10.454;2023-05-07T08:07:15;4.17;;;2.03;;
19798;SDS011;10059;59.850;10.454;2023-05-07T08:09:43;5.43;;;2.17;;
19798;SDS011;10059;59.850;10.454;2023-05-07T08:12:10;3.83;;;2.10;;
19798;SDS011;10059;59.850;10.454;2023-05-07T08:14:37;6.23;;;1.93;;
19798;SDS011;10059;59.850;10.454;2023-05-07T08:17:05;5.13;;;2.50;;
19798;SDS011;10059;59.850;10.454;2023-05-07T08:19:34;4.70;;;2.10;;
19798;SDS011;10059;59.850;10.454;2023-05-07T08:22:02;3.10;;;2.00;;
19798;SDS011;10059;59.850;10.454;2023-05-07T08:24:29;9.40;;;2.20;;
19798;SDS011;10059;59.850;10.454;2023-05-07T08:26:55;4.60;;;2.33;;
19798;SDS011;10059;59.850;10.454;2023-05-07T08:29:22;5.63;;;2.30;;
19798;SDS011;10059;59.850;10.454;2023-05-07T08:31:49;4.23;;;1.80;;
19798;SDS011;10059;59.850;10.454;2023-05-07T08:34:17;4.50;;;2.10;;
19798;SDS011;10059;59.850;10.454;2023-05-07T08:36:44;3.77;;;1.97;;
19798;SDS011;10059;59.850;10.454;2023-05-07T08:39:13;5.80;;;2.00;;
19798;SDS011;10059;59.850;10.454;2023-05-07T08:41:40;7.10;;;2.20;;
19798;SDS011;10059;59.850;10.454;2023-05-07T08:44:11;3.67;;;2.03;;
19798;SDS011;10059;59.850;10.454;2023-05-07T08:46:39;4.23;;;2.10;;
19798;SDS011;10059;59.850;10.454;2023-05-07T08:49:08;13.57;;;2.60;;
19798;SDS011;10059;59.850;10.454;2023-05-07T08:51:36;7.87;;;2.33;;
19798;SDS011;10059;59.850;10.454;2023-05-07T08:54:04;7.37;;;1.90;;
19798;SDS011;10059;59.850;10.454;2023-05-07T08:56:31;5.07;;;2.00;;
19798;SDS011;10059;59.850;10.454;2023-05-07T08:58:58;4.20;;;2.03;;
19798;SDS011;10059;59.850;10.454;2023-05-07T09:01:25;3.57;;;1.90;;
19798;SDS011;10059;59.850;10.454;2023-05-07T09:03:52;3.33;;;1.63;;
19798;SDS011;10059;59.850;10.454;2023-05-07T09:06:20;4.53;;;1.77;;
19798;SDS011;10059;59.850;10.454;2023-05-07T09:08:51;5.83;;;1.90;;
19798;SDS011;10059;59.850;10.454;2023-05-07T09:11:21;3.27;;;1.60;;
19798;SDS011;10059;59.850;10.454;2023-05-07T09:13:49;5.27;;;1.50;;
19798;SDS011;10059;59.850;10.454;2023-05-07T09:16:20;5.17;;;1.80;;
19798;SDS011;10059;59.850;10.454;2023-05-07T09:18:48;3.33;;;1.60;;
19798;SDS011;10059;59.850;10.454;2023-05-07T09:21:18;4.03;;;1.40;;
19798;SDS011;10059;59.850;10.454;2023-05-07T09:23:45;4.50;;;1.60;;
19798;SDS011;10059;59.850;10.454;2023-05-07T09:26:15;2.10;;;1.47;;
19798;SDS011;10059;59.850;10.454;2023-05-07T09:28:42;2.70;;;1.30;;
19798;SDS011;10059;59.850;10.454;2023-05-07T09:31:09;3.80;;;1.50;;
19798;SDS011;10059;59.850;10.454;2023-05-07T09:33:37;4.53;;;1.20;;
19798;SDS011;10059;59.850;10.454;2023-05-07T09:36:04;2.70;;;1.40;;
19798;SDS011;10059;59.850;10.454;2023-05-07T09:38:32;4.57;;;1.40;;
19798;SDS011;10059;59.850;10.454;2023-05-07T09:41:03;3.37;;;1.30;;
19798;SDS011;10059;59.850;10.454;2023-05-07T09:43:34;2.07;;;1.27;;
19798;SDS011;10059;59.850;10.454;2023-05-07T09:46:04;1.80;;;1.30;;
19798;SDS011;10059;59.850;10.454;2023-05-07T09:48:35;2.47;;;1.10;;
19798;SDS011;10059;59.850;10.454;2023-05-07T09:51:06;4.50;;;1.30;;
19798;SDS011;10059;59.850;10.454;2023-05-07T09:53:41;9.97;;;1.40;;
19798;SDS011;10059;59.850;10.454;2023-05-07T09:56:10;4.20;;;1.27;;
19798;SDS011;10059;59.850;10.454;2023-05-07T09:58:41;3.37;;;1.27;;
19798;SDS011;10059;59.850;10.454;2023-05-07T10:01:10;3.30;;;1.20;;
19798;SDS011;10059;59.850;10.454;2023-05-07T10:03:37;3.37;;;1.13;;
19798;SDS011;10059;59.850;10.454;2023-05-07T10:06:08;2.23;;;1.13;;
19798;SDS011;10059;59.850;10.454;2023-05-07T10:08:35;6.17;;;1.37;;
19798;SDS011;10059;59.850;10.454;2023-05-07T10:11:02;1.67;;;1.20;;
19798;SDS011;10059;59.850;10.454;2023-05-07T10:13:30;3.10;;;1.40;;
19798;SDS011;10059;59.850;10.454;2023-05-07T10:15:59;1.63;;;1.13;;
19798;SDS011;10059;59.850;10.454;2023-05-07T10:18:27;1.97;;;1.20;;
19798;SDS011;10059;59.850;10.454;2023-05-07T10:20:58;2.97;;;1.30;;
19798;SDS011;10059;59.850;10.454;2023-05-07T10:23:28;2.93;;;1.37;;
19798;SDS011;10059;59.850;10.454;2023-05-07T10:25:57;3.33;;;1.40;;
19798;SDS011;10059;59.850;10.454;2023-05-07T10:28:25;5.33;;;1.40;;
19798;SDS011;10059;59.850;10.454;2023-05-07T10:30:57;3.53;;;1.50;;
19798;SDS011;10059;59.850;10.454;2023-05-07T10:33:33;3.23;;;1.50;;
19798;SDS011;10059;59.850;10.454;2023-05-07T10:36:02;2.50;;;1.30;;
19798;SDS011;10059;59.850;10.454;2023-05-07T10:38:30;2.90;;;1.37;;
19798;SDS011;10059;59.850;10.454;2023-05-07T10:40:57;2.53;;;1.40;;
19798;SDS011;10059;59.850;10.454;2023-05-07T10:43:24;3.60;;;1.57;;
19798;SDS011;10059;59.850;10.454;2023-05-07T10:46:11;4.87;;;1.50;;
19798;SDS011;10059;59.850;10.454;2023-05-07T10:51:36;2.73;;;1.27;;
19798;SDS011;10059;59.850;10.454;2023-05-07T10:54:21;6.00;;;1.63;;
19798;SDS011;10059;59.850;10.454;2023-05-07T10:56:48;3.03;;;1.40;;
19798;SDS011;10059;59.850;10.454;2023-05-07T10:59:30;2.53;;;1.43;;
19798;SDS011;10059;59.850;10.454;2023-05-07T11:02:00;5.93;;;1.60;;
19798;SDS011;10059;59.850;10.454;2023-05-07T11:04:29;4.93;;;1.40;;
19798;SDS011;10059;59.850;10.454;2023-05-07T11:09:55;2.33;;;1.43;;
19798;SDS011;10059;59.850;10.454;2023-05-07T11:15:34;2.50;;;1.40;;
19798;SDS011;10059;59.850;10.454;2023-05-07T11:18:08;2.67;;;1.40;;
19798;SDS011;10059;59.850;10.454;2023-05-07T11:20:45;4.90;;;1.87;;
19798;SDS011;10059;59.850;10.454;2023-05-07T11:26:18;3.37;;;1.60;;
19798;SDS011;10059;59.850;10.454;2023-05-07T11:28:45;4.33;;;1.33;;
19798;SDS011;10059;59.850;10.454;2023-05-07T11:31:12;4.23;;;1.50;;
19798;SDS011;10059;59.850;10.454;2023-05-07T11:33:43;2.97;;;1.70;;
19798;SDS011;10059;59.850;10.454;2023-05-07T11:36:10;4.63;;;1.40;;
19798;SDS011;10059;59.850;10.454;2023-05-07T11:38:37;4.37;;;1.40;;
19798;SDS011;10059;59.850;10.454;2023-05-07T11:41:04;2.83;;;1.43;;
19798;SDS011;10059;59.850;10.454;2023-05-07T11:43:31;3.03;;;1.50;;
19798;SDS011;10059;59.850;10.454;2023-05-07T11:46:07;6.07;;;1.40;;
19798;SDS011;10059;59.850;10.454;2023-05-07T11:48:35;2.73;;;1.50;;
19798;SDS011;10059;59.850;10.454;2023-05-07T11:51:04;10.23;;;1.83;;
19798;SDS011;10059;59.850;10.454;2023-05-07T11:53:37;2.33;;;1.33;;
19798;SDS011;10059;59.850;10.454;2023-05-07T11:56:06;2.13;;;1.40;;
19798;SDS011;10059;59.850;10.454;2023-05-07T11:58:33;3.40;;;1.37;;
19798;SDS011;10059;59.850;10.454;2023-05-07T12:01:00;3.17;;;1.20;;
19798;SDS011;10059;59.850;10.454;2023-05-07T12:03:27;8.10;;;1.43;;
19798;SDS011;10059;59.850;10.454;2023-05-07T12:05:54;2.60;;;1.40;;
19798;SDS011;10059;59.850;10.454;2023-05-07T12:08:22;3.57;;;1.57;;
19798;SDS011;10059;59.850;10.454;2023-05-07T12:10:49;4.03;;;1.40;;
19798;SDS011;10059;59.850;10.454;2023-05-07T12:13:17;6.10;;;1.57;;
19798;SDS011;10059;59.850;10.454;2023-05-07T12:15:45;4.57;;;1.73;;
19798;SDS011;10059;59.850;10.454;2023-05-07T12:18:12;4.57;;;1.60;;
19798;SDS011;10059;59.850;10.454;2023-05-07T12:20:40;2.77;;;1.50;;
19798;SDS011;10059;59.850;10.454;2023-05-07T12:23:07;3.90;;;1.60;;
19798;SDS011;10059;59.850;10.454;2023-05-07T12:25:35;2.87;;;1.60;;
19798;SDS011;10059;59.850;10.454;2023-05-07T12:28:03;3.83;;;1.60;;
19798;SDS011;10059;59.850;10.454;2023-05-07T12:30:30;2.23;;;1.20;;
19798;SDS011;10059;59.850;10.454;2023-05-07T12:32:58;3.80;;;1.60;;
19798;SDS011;10059;59.850;10.454;2023-05-07T12:35:27;3.40;;;1.80;;
19798;SDS011;10059;59.850;10.454;2023-05-07T12:37:54;4.93;;;1.80;;
19798;SDS011;10059;59.850;10.454;2023-05-07T12:40:24;3.53;;;1.83;;
19798;SDS011;10059;59.850;10.454;2023-05-07T12:42:53;7.97;;;1.93;;
19798;SDS011;10059;59.850;10.454;2023-05-07T12:45:20;4.10;;;2.10;;
19798;SDS011;10059;59.850;10.454;2023-05-07T12:47:47;3.50;;;2.03;;
19798;SDS011;10059;59.850;10.454;2023-05-07T12:50:15;3.93;;;1.80;;
19798;SDS011;10059;59.850;10.454;2023-05-07T12:52:42;3.20;;;1.80;;
19798;SDS011;10059;59.850;10.454;2023-05-07T12:55:11;4.70;;;1.97;;
19798;SDS011;10059;59.850;10.454;2023-05-07T12:57:40;7.80;;;1.83;;
19798;SDS011;10059;59.850;10.454;2023-05-07T13:00:10;5.43;;;1.73;;
19798;SDS011;10059;59.850;10.454;2023-05-07T13:02:38;4.80;;;1.50;;
19798;SDS011;10059;59.850;10.454;2023-05-07T13:05:06;6.10;;;1.53;;
19798;SDS011;10059;59.850;10.454;2023-05-07T13:07:33;3.93;;;1.73;;
19798;SDS011;10059;59.850;10.454;2023-05-07T13:10:01;3.70;;;1.90;;
19798;SDS011;10059;59.850;10.454;2023-05-07T13:12:28;3.60;;;1.57;;
19798;SDS011;10059;59.850;10.454;2023-05-07T13:14:55;5.30;;;1.70;;
19798;SDS011;10059;59.850;10.454;2023-05-07T13:17:23;4.93;;;1.50;;
19798;SDS011;10059;59.850;10.454;2023-05-07T13:19:50;4.10;;;1.50;;
19798;SDS011;10059;59.850;10.454;2023-05-07T13:22:17;2.90;;;1.90;;
19798;SDS011;10059;59.850;10.454;2023-05-07T13:24:44;3.33;;;1.63;;
19798;SDS011;10059;59.850;10.454;2023-05-07T13:27:11;4.20;;;1.60;;
19798;SDS011;10059;59.850;10.454;2023-05-07T13:29:38;4.63;;;1.90;;
19798;SDS011;10059;59.850;10.454;2023-05-07T13:32:05;3.13;;;1.47;;
19798;SDS011;10059;59.850;10.454;2023-05-07T13:34:33;3.07;;;1.60;;
19798;SDS011;10059;59.850;10.454;2023-05-07T13:37:00;4.07;;;1.83;;
19798;SDS011;10059;59.850;10.454;2023-05-07T13:39:27;2.53;;;1.60;;
19798;SDS011;10059;59.850;10.454;2023-05-07T13:41:53;2.60;;;1.40;;
19798;SDS011;10059;59.850;10.454;2023-05-07T13:44:20;3.43;;;1.53;;
19798;SDS011;10059;59.850;10.454;2023-05-07T13:46:47;3.70;;;1.70;;
19798;SDS011;10059;59.850;10.454;2023-05-07T13:49:14;3.20;;;1.60;;
19798;SDS011;10059;59.850;10.454;2023-05-07T13:51:42;5.70;;;1.60;;
19798;SDS011;10059;59.850;10.454;2023-05-07T13:54:09;3.00;;;1.30;;
19798;SDS011;10059;59.850;10.454;2023-05-07T13:56:36;5.80;;;1.70;;
19798;SDS011;10059;59.850;10.454;2023-05-07T13:59:03;7.47;;;2.10;;
19798;SDS011;10059;59.850;10.454;2023-05-07T14:01:30;5.77;;;1.90;;
19798;SDS011;10059;59.850;10.454;2023-05-07T14:03:57;2.80;;;1.60;;
19798;SDS011;10059;59.850;10.454;2023-05-07T14:06:24;3.40;;;1.80;;
19798;SDS011;10059;59.850;10.454;2023-05-07T14:08:53;6.33;;;1.77;;
19798;SDS011;10059;59.850;10.454;2023-05-07T14:11:23;4.10;;;1.70;;
19798;SDS011;10059;59.850;10.454;2023-05-07T14:13:49;5.63;;;1.70;;
19798;SDS011;10059;59.850;10.454;2023-05-07T14:16:16;3.83;;;1.70;;
19798;SDS011;10059;59.850;10.454;2023-05-07T14:18:43;4.90;;;1.80;;
19798;SDS011;10059;59.850;10.454;2023-05-07T14:21:10;3.50;;;1.90;;
19798;SDS011;10059;59.850;10.454;2023-05-07T14:23:37;8.00;;;1.70;;
19798;SDS011;10059;59.850;10.454;2023-05-07T14:26:05;3.67;;;1.90;;
19798;SDS011;10059;59.850;10.454;2023-05-07T14:28:32;7.20;;;1.80;;
19798;SDS011;10059;59.850;10.454;2023-05-07T14:30:59;4.23;;;2.07;;
19798;SDS011;10059;59.850;10.454;2023-05-07T14:33:25;5.47;;;2.50;;
19798;SDS011;10059;59.850;10.454;2023-05-07T14:35:52;3.63;;;1.80;;
19798;SDS011;10059;59.850;10.454;2023-05-07T14:38:19;5.40;;;2.10;;
19798;SDS011;10059;59.850;10.454;2023-05-07T14:40:46;3.80;;;1.60;;
19798;SDS011;10059;59.850;10.454;2023-05-07T14:43:16;5.93;;;2.43;;
19798;SDS011;10059;59.850;10.454;2023-05-07T14:45:45;7.67;;;2.50;;
19798;SDS011;10059;59.850;10.454;2023-05-07T14:48:12;5.73;;;1.93;;
19798;SDS011;10059;59.850;10.454;2023-05-07T14:50:40;5.13;;;2.03;;